sensor_id;sensor_type;location;lat;lon;timestamp;P1;durP1;ratioP1;P2;durP2;ratioP2
66761;SDS011;53672;48.176;16.338;2023-07-31T00:00:04;5.33;;;1.70;;
66761;SDS011;53672;48.176;16.338;2023-07-31T00:05:05;4.93;;;2.00;;
66761;SDS011;53672;48.176;16.338;2023-07-31T00:10:06;4.97;;;1.93;;
66761;SDS011;53672;48.176;16.338;2023-07-31T00:15:09;4.55;;;1.85;;
66761;SDS011;53672;48.176;16.338;2023-07-31T00:20:10;5.57;;;1.90;;
66761;SDS011;53672;48.176;16.338;2023-07-31T00:25:11;5.55;;;1.90;;
66761;SDS011;53672;48.176;16.338;2023-07-31T00:30:13;4.70;;;1.63;;
66761;SDS011;53672;48.176;16.338;2023-07-31T00:35:13;3.97;;;1.60;;
66761;SDS011;53672;48.176;16.338;2023-07-31T00:40:14;3.73;;;1.77;;
66761;SDS011;53672;48.176;16.338;2023-07-31T00:45:16;4.20;;;1.60;;
66761;SDS011;53672;48.176;16.338;2023-07-31T00:50:17;4.47;;;1.70;;
66761;SDS011;53672;48.176;16.338;2023-07-31T00:55:17;4.30;;;1.70;;
66761;SDS011;53672;48.176;16.338;2023-07-31T01:00:19;4.80;;;1.90;;
66761;SDS011;53672;48.176;16.338;2023-07-31T01:05:21;3.87;;;1.67;;
66761;SDS011;53672;48.176;16.338;2023-07-31T01:10:30;4.25;;;1.60;;
66761;SDS011;53672;48.176;16.338;2023-07-31T01:15:36;3.80;;;1.45;;
66761;SDS011;53672;48.176;16.338;2023-07-31T01:20:36;4.32;;;1.67;;
66761;SDS011;53672;48.176;16.338;2023-07-31T01:25:46;7.03;;;1.70;;
66761;SDS011;53672;48.176;16.338;2023-07-31T01:30:51;4.00;;;1.40;;
66761;SDS011;53672;48.176;16.338;2023-07-31T01:35:55;4.28;;;1.70;;
66761;SDS011;53672;48.176;16.338;2023-07-31T01:40:58;5.35;;;1.77;;
66761;SDS011;53672;48.176;16.338;2023-07-31T01:45:58;4.55;;;1.63;;
66761;SDS011;53672;48.176;16.338;2023-07-31T01:51:00;3.43;;;1.60;;
66761;SDS011;53672;48.176;16.338;2023-07-31T01:56:02;3.28;;;1.52;;
66761;SDS011;53672;48.176;16.338;2023-07-31T02:01:02;3.80;;;1.70;;
66761;SDS011;53672;48.176;16.338;2023-07-31T02:06:03;5.33;;;1.80;;
66761;SDS011;53672;48.176;16.338;2023-07-31T02:11:05;5.95;;;1.77;;
66761;SDS011;53672;48.176;16.338;2023-07-31T02:16:05;4.50;;;1.80;;
66761;SDS011;53672;48.176;16.338;2023-07-31T02:21:05;4.43;;;1.83;;
66761;SDS011;53672;48.176;16.338;2023-07-31T02:26:07;3.27;;;1.50;;
66761;SDS011;53672;48.176;16.338;2023-07-31T02:31:08;4.03;;;1.70;;
66761;SDS011;53672;48.176;16.338;2023-07-31T02:36:08;6.23;;;1.70;;
66761;SDS011;53672;48.176;16.338;2023-07-31T02:41:10;4.00;;;1.60;;
66761;SDS011;53672;48.176;16.338;2023-07-31T02:46:10;5.38;;;1.67;;
66761;SDS011;53672;48.176;16.338;2023-07-31T02:51:11;4.30;;;1.83;;
66761;SDS011;53672;48.176;16.338;2023-07-31T02:56:13;3.70;;;1.50;;
66761;SDS011;53672;48.176;16.338;2023-07-31T03:01:13;4.75;;;1.92;;
66761;SDS011;53672;48.176;16.338;2023-07-31T03:06:14;4.95;;;1.60;;
66761;SDS011;53672;48.176;16.338;2023-07-31T03:11:16;4.13;;;1.60;;
66761;SDS011;53672;48.176;16.338;2023-07-31T03:16:16;3.80;;;1.80;;
66761;SDS011;53672;48.176;16.338;2023-07-31T03:21:17;5.07;;;2.00;;
66761;SDS011;53672;48.176;16.338;2023-07-31T03:26:18;5.90;;;2.03;;
66761;SDS011;53672;48.176;16.338;2023-07-31T03:31:19;5.72;;;2.45;;
66761;SDS011;53672;48.176;16.338;2023-07-31T03:36:19;5.47;;;1.93;;
66761;SDS011;53672;48.176;16.338;2023-07-31T03:41:21;3.90;;;1.93;;
66761;SDS011;53672;48.176;16.338;2023-07-31T03:46:22;5.03;;;2.03;;
66761;SDS011;53672;48.176;16.338;2023-07-31T03:51:23;5.47;;;2.00;;
66761;SDS011;53672;48.176;16.338;2023-07-31T03:56:25;5.45;;;2.30;;
66761;SDS011;53672;48.176;16.338;2023-07-31T04:01:25;4.70;;;2.20;;
66761;SDS011;53672;48.176;16.338;2023-07-31T04:06:26;5.70;;;2.38;;
66761;SDS011;53672;48.176;16.338;2023-07-31T04:11:27;5.97;;;2.38;;
66761;SDS011;53672;48.176;16.338;2023-07-31T04:16:28;5.15;;;2.35;;
66761;SDS011;53672;48.176;16.338;2023-07-31T04:21:28;5.97;;;2.30;;
66761;SDS011;53672;48.176;16.338;2023-07-31T04:26:30;5.07;;;2.60;;
66761;SDS011;53672;48.176;16.338;2023-07-31T04:31:31;5.47;;;2.70;;
66761;SDS011;53672;48.176;16.338;2023-07-31T04:36:31;5.83;;;2.77;;
66761;SDS011;53672;48.176;16.338;2023-07-31T04:41:34;5.45;;;2.40;;
66761;SDS011;53672;48.176;16.338;2023-07-31T04:46:34;7.17;;;2.70;;
66761;SDS011;53672;48.176;16.338;2023-07-31T04:51:35;5.23;;;2.20;;
66761;SDS011;53672;48.176;16.338;2023-07-31T04:56:37;6.30;;;2.33;;
66761;SDS011;53672;48.176;16.338;2023-07-31T05:01:37;4.97;;;2.22;;
66761;SDS011;53672;48.176;16.338;2023-07-31T05:06:38;5.17;;;2.27;;
66761;SDS011;53672;48.176;16.338;2023-07-31T05:11:39;6.57;;;3.60;;
66761;SDS011;53672;48.176;16.338;2023-07-31T05:16:40;10.18;;;3.80;;
66761;SDS011;53672;48.176;16.338;2023-07-31T05:21:40;4.93;;;2.10;;
66761;SDS011;53672;48.176;16.338;2023-07-31T05:26:42;6.37;;;2.67;;
66761;SDS011;53672;48.176;16.338;2023-07-31T05:31:43;7.90;;;2.50;;
66761;SDS011;53672;48.176;16.338;2023-07-31T05:36:43;5.15;;;2.35;;
66761;SDS011;53672;48.176;16.338;2023-07-31T05:41:45;5.47;;;2.20;;
66761;SDS011;53672;48.176;16.338;2023-07-31T05:46:45;6.10;;;2.60;;
66761;SDS011;53672;48.176;16.338;2023-07-31T05:51:46;6.40;;;2.80;;
66761;SDS011;53672;48.176;16.338;2023-07-31T05:56:48;4.50;;;2.00;;
66761;SDS011;53672;48.176;16.338;2023-07-31T06:01:48;6.28;;;2.30;;
66761;SDS011;53672;48.176;16.338;2023-07-31T06:06:49;6.27;;;2.20;;
66761;SDS011;53672;48.176;16.338;2023-07-31T06:11:51;6.10;;;2.30;;
66761;SDS011;53672;48.176;16.338;2023-07-31T06:16:52;5.53;;;2.03;;
66761;SDS011;53672;48.176;16.338;2023-07-31T06:21:52;5.07;;;2.07;;
66761;SDS011;53672;48.176;16.338;2023-07-31T06:26:54;3.83;;;2.00;;
66761;SDS011;53672;48.176;16.338;2023-07-31T06:31:54;5.70;;;1.98;;
66761;SDS011;53672;48.176;16.338;2023-07-31T06:36:55;5.97;;;2.10;;
66761;SDS011;53672;48.176;16.338;2023-07-31T06:41:57;5.43;;;2.07;;
66761;SDS011;53672;48.176;16.338;2023-07-31T06:46:57;8.85;;;2.92;;
66761;SDS011;53672;48.176;16.338;2023-07-31T06:51:58;7.73;;;2.10;;
66761;SDS011;53672;48.176;16.338;2023-07-31T06:57:00;3.93;;;1.77;;
66761;SDS011;53672;48.176;16.338;2023-07-31T07:02:00;6.30;;;2.20;;
66761;SDS011;53672;48.176;16.338;2023-07-31T07:07:00;4.53;;;1.90;;
66761;SDS011;53672;48.176;16.338;2023-07-31T07:12:02;5.57;;;1.73;;
66761;SDS011;53672;48.176;16.338;2023-07-31T07:17:03;5.90;;;1.98;;
66761;SDS011;53672;48.176;16.338;2023-07-31T07:22:04;6.50;;;1.60;;
66761;SDS011;53672;48.176;16.338;2023-07-31T07:27:07;4.00;;;1.40;;
66761;SDS011;53672;48.176;16.338;2023-07-31T07:32:07;4.75;;;1.85;;
66761;SDS011;53672;48.176;16.338;2023-07-31T07:37:08;7.30;;;1.80;;
66761;SDS011;53672;48.176;16.338;2023-07-31T07:42:10;5.80;;;1.77;;
66761;SDS011;53672;48.176;16.338;2023-07-31T07:47:10;5.35;;;1.60;;
66761;SDS011;53672;48.176;16.338;2023-07-31T07:52:11;5.53;;;1.80;;
66761;SDS011;53672;48.176;16.338;2023-07-31T07:57:12;6.27;;;1.70;;
66761;SDS011;53672;48.176;16.338;2023-07-31T08:02:13;4.90;;;1.90;;
66761;SDS011;53672;48.176;16.338;2023-07-31T08:07:13;4.22;;;1.67;;
66761;SDS011;53672;48.176;16.338;2023-07-31T08:12:15;4.37;;;1.70;;
66761;SDS011;53672;48.176;16.338;2023-07-31T08:17:16;5.63;;;1.87;;
66761;SDS011;53672;48.176;16.338;2023-07-31T08:22:16;4.45;;;1.50;;
66761;SDS011;53672;48.176;16.338;2023-07-31T08:27:18;4.95;;;1.58;;
66761;SDS011;53672;48.176;16.338;2023-07-31T08:32:19;4.50;;;1.70;;
66761;SDS011;53672;48.176;16.338;2023-07-31T08:37:19;5.37;;;1.80;;
66761;SDS011;53672;48.176;16.338;2023-07-31T08:42:21;4.43;;;1.63;;
66761;SDS011;53672;48.176;16.338;2023-07-31T08:47:21;6.63;;;1.83;;
66761;SDS011;53672;48.176;16.338;2023-07-31T08:52:23;5.25;;;1.58;;
66761;SDS011;53672;48.176;16.338;2023-07-31T08:57:25;5.30;;;1.97;;
66761;SDS011;53672;48.176;16.338;2023-07-31T09:02:26;6.40;;;1.90;;
66761;SDS011;53672;48.176;16.338;2023-07-31T09:07:31;4.70;;;1.80;;
66761;SDS011;53672;48.176;16.338;2023-07-31T09:12:35;4.55;;;1.45;;
66761;SDS011;53672;48.176;16.338;2023-07-31T09:17:36;5.10;;;1.70;;
66761;SDS011;53672;48.176;16.338;2023-07-31T09:22:37;5.27;;;2.10;;
66761;SDS011;53672;48.176;16.338;2023-07-31T09:27:46;5.20;;;2.00;;
66761;SDS011;53672;48.176;16.338;2023-07-31T09:32:48;6.18;;;1.50;;
66761;SDS011;53672;48.176;16.338;2023-07-31T09:37:50;5.63;;;1.67;;
66761;SDS011;53672;48.176;16.338;2023-07-31T09:42:53;4.63;;;2.00;;
66761;SDS011;53672;48.176;16.338;2023-07-31T09:47:55;8.82;;;2.20;;
66761;SDS011;53672;48.176;16.338;2023-07-31T09:52:56;3.87;;;1.70;;
66761;SDS011;53672;48.176;16.338;2023-07-31T09:57:58;3.67;;;1.90;;
66761;SDS011;53672;48.176;16.338;2023-07-31T10:02:59;5.72;;;1.75;;
66761;SDS011;53672;48.176;16.338;2023-07-31T10:08:01;6.25;;;2.20;;
66761;SDS011;53672;48.176;16.338;2023-07-31T10:13:04;5.33;;;1.90;;
66761;SDS011;53672;48.176;16.338;2023-07-31T10:18:05;6.70;;;2.25;;
66761;SDS011;53672;48.176;16.338;2023-07-31T10:23:06;5.03;;;1.90;;
66761;SDS011;53672;48.176;16.338;2023-07-31T10:28:08;6.35;;;2.30;;
66761;SDS011;53672;48.176;16.338;2023-07-31T10:33:10;6.70;;;2.20;;
66761;SDS011;53672;48.176;16.338;2023-07-31T10:38:11;5.40;;;2.25;;
66761;SDS011;53672;48.176;16.338;2023-07-31T10:43:24;6.28;;;2.40;;
66761;SDS011;53672;48.176;16.338;2023-07-31T10:48:25;8.32;;;2.22;;
66761;SDS011;53672;48.176;16.338;2023-07-31T10:53:33;4.53;;;1.83;;
66761;SDS011;53672;48.176;16.338;2023-07-31T10:58:35;6.23;;;2.13;;
66761;SDS011;53672;48.176;16.338;2023-07-31T11:03:41;4.13;;;2.00;;
66761;SDS011;53672;48.176;16.338;2023-07-31T11:08:43;5.18;;;2.03;;
66761;SDS011;53672;48.176;16.338;2023-07-31T11:13:46;3.33;;;1.80;;
66761;SDS011;53672;48.176;16.338;2023-07-31T11:18:48;5.10;;;2.07;;
66761;SDS011;53672;48.176;16.338;2023-07-31T11:23:50;5.00;;;2.50;;
66761;SDS011;53672;48.176;16.338;2023-07-31T11:28:53;4.27;;;2.00;;
66761;SDS011;53672;48.176;16.338;2023-07-31T11:34:03;4.18;;;2.10;;
66761;SDS011;53672;48.176;16.338;2023-07-31T11:39:04;4.50;;;2.25;;
66761;SDS011;53672;48.176;16.338;2023-07-31T11:44:06;5.63;;;2.80;;
66761;SDS011;53672;48.176;16.338;2023-07-31T11:49:07;5.03;;;2.40;;
66761;SDS011;53672;48.176;16.338;2023-07-31T11:54:08;4.10;;;2.10;;
66761;SDS011;53672;48.176;16.338;2023-07-31T11:59:10;5.10;;;2.40;;
66761;SDS011;53672;48.176;16.338;2023-07-31T12:04:11;4.95;;;2.60;;
66761;SDS011;53672;48.176;16.338;2023-07-31T12:09:11;5.37;;;2.30;;
66761;SDS011;53672;48.176;16.338;2023-07-31T12:14:22;4.85;;;2.30;;
66761;SDS011;53672;48.176;16.338;2023-07-31T12:19:24;5.40;;;2.35;;
66761;SDS011;53672;48.176;16.338;2023-07-31T12:24:26;5.78;;;2.22;;
66761;SDS011;53672;48.176;16.338;2023-07-31T12:29:34;5.77;;;2.30;;
66761;SDS011;53672;48.176;16.338;2023-07-31T12:34:41;4.70;;;2.70;;
66761;SDS011;53672;48.176;16.338;2023-07-31T12:39:42;4.78;;;2.90;;
66761;SDS011;53672;48.176;16.338;2023-07-31T12:44:44;5.63;;;3.20;;
66761;SDS011;53672;48.176;16.338;2023-07-31T12:49:45;4.57;;;3.28;;
66761;SDS011;53672;48.176;16.338;2023-07-31T12:54:45;6.10;;;3.40;;
66761;SDS011;53672;48.176;16.338;2023-07-31T12:59:47;4.10;;;3.40;;
66761;SDS011;53672;48.176;16.338;2023-07-31T13:04:48;5.80;;;4.00;;
66761;SDS011;53672;48.176;16.338;2023-07-31T13:09:49;5.03;;;3.50;;
66761;SDS011;53672;48.176;16.338;2023-07-31T13:14:51;5.80;;;3.83;;
66761;SDS011;53672;48.176;16.338;2023-07-31T13:19:51;4.53;;;3.70;;
66761;SDS011;53672;48.176;16.338;2023-07-31T13:24:52;4.80;;;3.50;;
66761;SDS011;53672;48.176;16.338;2023-07-31T13:29:54;4.53;;;3.20;;
66761;SDS011;53672;48.176;16.338;2023-07-31T13:34:54;4.70;;;2.40;;
66761;SDS011;53672;48.176;16.338;2023-07-31T13:39:55;5.07;;;3.00;;
66761;SDS011;53672;48.176;16.338;2023-07-31T13:44:57;5.20;;;2.30;;
66761;SDS011;53672;48.176;16.338;2023-07-31T13:49:57;4.57;;;2.20;;
66761;SDS011;53672;48.176;16.338;2023-07-31T13:54:58;4.20;;;1.87;;
66761;SDS011;53672;48.176;16.338;2023-07-31T14:00:00;4.20;;;2.00;;
66761;SDS011;53672;48.176;16.338;2023-07-31T14:05:00;4.88;;;1.80;;
66761;SDS011;53672;48.176;16.338;2023-07-31T14:10:01;3.60;;;1.93;;
66761;SDS011;53672;48.176;16.338;2023-07-31T14:15:03;4.15;;;1.98;;
66761;SDS011;53672;48.176;16.338;2023-07-31T14:20:05;4.00;;;1.98;;
66761;SDS011;53672;48.176;16.338;2023-07-31T14:25:06;5.07;;;1.92;;
66761;SDS011;53672;48.176;16.338;2023-07-31T14:30:09;4.47;;;2.27;;
66761;SDS011;53672;48.176;16.338;2023-07-31T14:35:10;4.32;;;2.00;;
66761;SDS011;53672;48.176;16.338;2023-07-31T14:40:11;4.67;;;2.07;;
66761;SDS011;53672;48.176;16.338;2023-07-31T14:45:14;4.68;;;2.00;;
66761;SDS011;53672;48.176;16.338;2023-07-31T14:50:14;4.30;;;2.10;;
66761;SDS011;53672;48.176;16.338;2023-07-31T14:55:15;4.53;;;2.10;;
66761;SDS011;53672;48.176;16.338;2023-07-31T15:00:17;5.15;;;2.10;;
66761;SDS011;53672;48.176;16.338;2023-07-31T15:05:17;4.28;;;1.95;;
66761;SDS011;53672;48.176;16.338;2023-07-31T15:10:18;4.33;;;1.93;;
66761;SDS011;53672;48.176;16.338;2023-07-31T15:15:20;5.20;;;2.40;;
66761;SDS011;53672;48.176;16.338;2023-07-31T15:20:20;5.95;;;2.30;;
66761;SDS011;53672;48.176;16.338;2023-07-31T15:25:20;4.20;;;2.00;;
66761;SDS011;53672;48.176;16.338;2023-07-31T15:30:22;4.80;;;1.73;;
66761;SDS011;53672;48.176;16.338;2023-07-31T15:35:24;4.25;;;1.70;;
66761;SDS011;53672;48.176;16.338;2023-07-31T15:40:24;5.90;;;2.20;;
66761;SDS011;53672;48.176;16.338;2023-07-31T15:45:26;4.93;;;2.03;;
66761;SDS011;53672;48.176;16.338;2023-07-31T15:50:27;5.13;;;1.90;;
66761;SDS011;53672;48.176;16.338;2023-07-31T15:55:27;5.13;;;2.00;;
66761;SDS011;53672;48.176;16.338;2023-07-31T16:00:29;4.30;;;2.00;;
66761;SDS011;53672;48.176;16.338;2023-07-31T16:05:30;5.20;;;2.30;;
66761;SDS011;53672;48.176;16.338;2023-07-31T16:10:30;3.97;;;2.20;;
66761;SDS011;53672;48.176;16.338;2023-07-31T16:15:32;4.65;;;2.30;;
66761;SDS011;53672;48.176;16.338;2023-07-31T16:20:33;4.93;;;2.00;;
66761;SDS011;53672;48.176;16.338;2023-07-31T16:25:34;4.60;;;2.05;;
66761;SDS011;53672;48.176;16.338;2023-07-31T16:30:36;4.00;;;2.10;;
66761;SDS011;53672;48.176;16.338;2023-07-31T16:35:36;4.20;;;2.10;;
66761;SDS011;53672;48.176;16.338;2023-07-31T16:40:37;4.20;;;2.00;;
66761;SDS011;53672;48.176;16.338;2023-07-31T16:45:39;4.63;;;2.00;;
66761;SDS011;53672;48.176;16.338;2023-07-31T16:50:39;6.82;;;1.80;;
66761;SDS011;53672;48.176;16.338;2023-07-31T16:55:40;5.17;;;2.20;;
66761;SDS011;53672;48.176;16.338;2023-07-31T17:00:42;4.67;;;2.10;;
66761;SDS011;53672;48.176;16.338;2023-07-31T17:05:42;4.93;;;1.85;;
66761;SDS011;53672;48.176;16.338;2023-07-31T17:10:43;5.13;;;1.90;;
66761;SDS011;53672;48.176;16.338;2023-07-31T17:15:44;7.33;;;2.13;;
66761;SDS011;53672;48.176;16.338;2023-07-31T17:20:45;8.03;;;1.90;;
66761;SDS011;53672;48.176;16.338;2023-07-31T17:25:45;5.20;;;1.80;;
66761;SDS011;53672;48.176;16.338;2023-07-31T17:30:48;5.20;;;1.85;;
66761;SDS011;53672;48.176;16.338;2023-07-31T17:35:49;5.40;;;2.13;;
66761;SDS011;53672;48.176;16.338;2023-07-31T17:40:50;4.00;;;1.60;;
66761;SDS011;53672;48.176;16.338;2023-07-31T17:45:53;5.43;;;2.40;;
66761;SDS011;53672;48.176;16.338;2023-07-31T17:50:53;5.72;;;2.08;;
66761;SDS011;53672;48.176;16.338;2023-07-31T17:55:54;7.23;;;2.10;;
66761;SDS011;53672;48.176;16.338;2023-07-31T18:00:56;5.10;;;1.90;;
66761;SDS011;53672;48.176;16.338;2023-07-31T18:05:57;5.47;;;2.33;;
66761;SDS011;53672;48.176;16.338;2023-07-31T18:10:57;6.93;;;2.30;;
66761;SDS011;53672;48.176;16.338;2023-07-31T18:15:59;5.40;;;2.63;;
66761;SDS011;53672;48.176;16.338;2023-07-31T18:21:00;8.95;;;2.50;;
66761;SDS011;53672;48.176;16.338;2023-07-31T18:26:01;6.43;;;2.70;;
66761;SDS011;53672;48.176;16.338;2023-07-31T18:31:04;6.88;;;2.70;;
66761;SDS011;53672;48.176;16.338;2023-07-31T18:36:05;6.38;;;2.40;;
66761;SDS011;53672;48.176;16.338;2023-07-31T18:41:06;6.87;;;2.50;;
66761;SDS011;53672;48.176;16.338;2023-07-31T18:46:09;8.10;;;2.83;;
66761;SDS011;53672;48.176;16.338;2023-07-31T18:51:09;7.10;;;2.60;;
66761;SDS011;53672;48.176;16.338;2023-07-31T18:56:10;7.78;;;2.60;;
66761;SDS011;53672;48.176;16.338;2023-07-31T19:01:12;6.37;;;2.80;;
66761;SDS011;53672;48.176;16.338;2023-07-31T19:06:13;7.30;;;3.15;;
66761;SDS011;53672;48.176;16.338;2023-07-31T19:11:14;7.53;;;2.70;;
66761;SDS011;53672;48.176;16.338;2023-07-31T19:16:16;6.60;;;2.80;;
66761;SDS011;53672;48.176;16.338;2023-07-31T19:21:17;8.10;;;3.03;;
66761;SDS011;53672;48.176;16.338;2023-07-31T19:26:18;11.20;;;3.28;;
66761;SDS011;53672;48.176;16.338;2023-07-31T19:31:22;9.63;;;3.33;;
66761;SDS011;53672;48.176;16.338;2023-07-31T19:36:23;5.53;;;2.90;;
66761;SDS011;53672;48.176;16.338;2023-07-31T19:41:23;5.93;;;2.73;;
66761;SDS011;53672;48.176;16.338;2023-07-31T19:46:25;5.20;;;2.60;;
66761;SDS011;53672;48.176;16.338;2023-07-31T19:51:26;5.57;;;2.60;;
66761;SDS011;53672;48.176;16.338;2023-07-31T19:56:27;8.23;;;2.95;;
66761;SDS011;53672;48.176;16.338;2023-07-31T20:01:30;6.10;;;2.80;;
66761;SDS011;53672;48.176;16.338;2023-07-31T20:06:31;7.03;;;2.80;;
66761;SDS011;53672;48.176;16.338;2023-07-31T20:11:32;6.63;;;2.60;;
66761;SDS011;53672;48.176;16.338;2023-07-31T20:16:34;5.05;;;2.30;;
66761;SDS011;53672;48.176;16.338;2023-07-31T20:21:36;6.55;;;2.83;;
66761;SDS011;53672;48.176;16.338;2023-07-31T20:26:37;6.67;;;2.40;;
66761;SDS011;53672;48.176;16.338;2023-07-31T20:31:39;6.47;;;2.77;;
66761;SDS011;53672;48.176;16.338;2023-07-31T20:36:41;10.93;;;2.70;;
66761;SDS011;53672;48.176;16.338;2023-07-31T20:41:41;5.93;;;2.50;;
66761;SDS011;53672;48.176;16.338;2023-07-31T20:46:43;6.57;;;2.55;;
66761;SDS011;53672;48.176;16.338;2023-07-31T20:51:44;4.75;;;2.35;;
66761;SDS011;53672;48.176;16.338;2023-07-31T20:56:45;4.53;;;2.50;;
66761;SDS011;53672;48.176;16.338;2023-07-31T21:01:47;5.93;;;2.50;;
66761;SDS011;53672;48.176;16.338;2023-07-31T21:06:48;6.72;;;2.42;;
66761;SDS011;53672;48.176;16.338;2023-07-31T21:11:49;5.57;;;2.70;;
66761;SDS011;53672;48.176;16.338;2023-07-31T21:16:51;5.27;;;2.50;;
66761;SDS011;53672;48.176;16.338;2023-07-31T21:21:51;6.40;;;2.53;;
66761;SDS011;53672;48.176;16.338;2023-07-31T21:26:52;5.67;;;2.53;;
66761;SDS011;53672;48.176;16.338;2023-07-31T21:31:53;6.87;;;2.80;;
66761;SDS011;53672;48.176;16.338;2023-07-31T21:36:54;6.43;;;2.47;;
66761;SDS011;53672;48.176;16.338;2023-07-31T21:41:54;7.17;;;2.70;;
66761;SDS011;53672;48.176;16.338;2023-07-31T21:46:57;5.13;;;2.67;;
66761;SDS011;53672;48.176;16.338;2023-07-31T21:51:58;6.40;;;2.50;;
66761;SDS011;53672;48.176;16.338;2023-07-31T21:56:58;5.20;;;2.77;;
66761;SDS011;53672;48.176;16.338;2023-07-31T22:02:00;6.77;;;2.67;;
66761;SDS011;53672;48.176;16.338;2023-07-31T22:07:00;5.53;;;2.60;;
66761;SDS011;53672;48.176;16.338;2023-07-31T22:12:01;6.70;;;2.53;;
66761;SDS011;53672;48.176;16.338;2023-07-31T22:17:03;5.23;;;2.63;;
66761;SDS011;53672;48.176;16.338;2023-07-31T22:22:03;5.72;;;2.85;;
66761;SDS011;53672;48.176;16.338;2023-07-31T22:27:05;6.60;;;2.83;;
66761;SDS011;53672;48.176;16.338;2023-07-31T22:32:07;6.05;;;2.65;;
66761;SDS011;53672;48.176;16.338;2023-07-31T22:37:08;5.53;;;2.70;;
66761;SDS011;53672;48.176;16.338;2023-07-31T22:42:08;5.93;;;2.50;;
66761;SDS011;53672;48.176;16.338;2023-07-31T22:47:10;7.93;;;2.90;;
66761;SDS011;53672;48.176;16.338;2023-07-31T22:52:11;6.23;;;3.03;;
66761;SDS011;53672;48.176;16.338;2023-07-31T22:57:11;6.43;;;2.97;;
66761;SDS011;53672;48.176;16.338;2023-07-31T23:02:13;6.27;;;3.30;;
66761;SDS011;53672;48.176;16.338;2023-07-31T23:07:13;6.03;;;3.25;;
66761;SDS011;53672;48.176;16.338;2023-07-31T23:12:14;6.87;;;2.93;;
66761;SDS011;53672;48.176;16.338;2023-07-31T23:17:15;6.87;;;3.30;;
66761;SDS011;53672;48.176;16.338;2023-07-31T23:22:16;6.03;;;2.80;;
66761;SDS011;53672;48.176;16.338;2023-07-31T23:27:16;7.30;;;3.30;;
66761;SDS011;53672;48.176;16.338;2023-07-31T23:32:18;7.90;;;3.60;;
66761;SDS011;53672;48.176;16.338;2023-07-31T23:37:19;8.47;;;4.20;;
66761;SDS011;53672;48.176;16.338;2023-07-31T23:42:19;7.93;;;3.58;;
66761;SDS011;53672;48.176;16.338;2023-07-31T23:47:21;6.95;;;3.85;;
66761;SDS011;53672;48.176;16.338;2023-07-31T23:52:21;8.50;;;3.47;;
66761;SDS011;53672;48.176;16.338;2023-07-31T23:57:22;7.77;;;3.30;;
